Impacts METAR Board INFO
IDs:

KPIT - Pittsburgh Intl, PA, US

Updated at: 0902 UTC 21 Jan 2018
Potential Impact None Slight Moderate High
Time20/21Z 20/22Z 20/23Z 21/00Z 21/01Z 21/02Z 21/03Z 21/04Z 21/05Z 21/06Z 21/07Z 21/08Z 21/09Z
VIS10 10 10 10 10 10 10 10 10 10 10 10 10
CIG250 250 250 -- -- -- -- -- 24 25 24 13 10
CoverBKNBKNBKNSCTSCTFEWFEWFEWBKNOVCOVCOVCOVC
FltCatVFRVFRVFRVFRVFRVFRVFRVFRMVFRMVFRMVFRMVFRMVFR
WX--------------------------
WDir2402302302101900210260250220210230220
WSpd13 8 6 5 3 0 3 4 5 5 6 6 5
WGst18 -- -- -- -- -- -- -- -- -- -- -- --
Raw hourly METARs
KPIT 202051Z 24013G18KT 10SM BKN250 08/M03 A3001 RMK AO2 SLP176 T00781028 53002
KPIT 202151Z 23008KT 10SM BKN250 08/M02 A3003 RMK AO2 SLP184 T00781022
KPIT 202251Z 23006KT 10SM BKN250 07/M02 A3005 RMK AO2 SLP192 T00671022
KPIT 202351Z 21005KT 10SM SCT250 06/M02 A3006 RMK AO2 SLP196 T00561022 10078 20056 51017
KPIT 210051Z 19003KT 10SM SCT250 05/M02 A3007 RMK AO2 SLP198 T00501022
KPIT 210151Z 00000KT 10SM FEW250 04/M02 A3008 RMK AO2 SLP202 T00441022
KPIT 210251Z 21003KT 10SM FEW250 03/M02 A3009 RMK AO2 SLP206 T00331022 53009
KPIT 210351Z 26004KT 10SM FEW025 04/M02 A3010 RMK AO2 SLP207 T00391017
KPIT 210451Z 25005KT 10SM BKN024 04/M01 A3012 RMK AO2 SLP212 T00441006 400780017
KPIT 210551Z 22005KT 10SM OVC025 06/01 A3011 RMK AO2 SLP209 T00560006 10061 20028 50005
KPIT 210651Z 21006KT 10SM BKN024 OVC050 06/01 A3010 RMK AO2 SLP205 T00560006
KPIT 210751Z 23006KT 10SM BKN013 OVC019 06/02 A3011 RMK AO2 SLP209 T00610017
KPIT 210851Z 22005KT 10SM OVC010 06/03 A3011 RMK AO2 SLP209 T00560028 53001